sensor_id;sensor_type;location;lat;lon;timestamp;P1;durP1;ratioP1;P2;durP2;ratioP2
5622;SDS011;2833;50.432;10.706;2023-02-07T00:02:12;10.30;;;4.57;;
5622;SDS011;2833;50.432;10.706;2023-02-07T00:04:37;9.70;;;4.87;;
5622;SDS011;2833;50.432;10.706;2023-02-07T00:07:02;5.10;;;3.83;;
5622;SDS011;2833;50.432;10.706;2023-02-07T00:09:27;6.37;;;3.60;;
5622;SDS011;2833;50.432;10.706;2023-02-07T00:11:53;7.53;;;4.30;;
5622;SDS011;2833;50.432;10.706;2023-02-07T00:14:18;8.23;;;4.00;;
5622;SDS011;2833;50.432;10.706;2023-02-07T00:16:43;7.67;;;4.37;;
5622;SDS011;2833;50.432;10.706;2023-02-07T00:19:08;6.53;;;4.37;;
5622;SDS011;2833;50.432;10.706;2023-02-07T00:21:33;5.60;;;3.93;;
5622;SDS011;2833;50.432;10.706;2023-02-07T00:23:59;8.17;;;5.00;;
5622;SDS011;2833;50.432;10.706;2023-02-07T00:26:24;7.50;;;4.10;;
5622;SDS011;2833;50.432;10.706;2023-02-07T00:28:50;8.10;;;4.77;;
5622;SDS011;2833;50.432;10.706;2023-02-07T00:31:20;7.77;;;4.90;;
5622;SDS011;2833;50.432;10.706;2023-02-07T00:33:46;8.33;;;4.63;;
5622;SDS011;2833;50.432;10.706;2023-02-07T00:36:13;8.77;;;4.97;;
5622;SDS011;2833;50.432;10.706;2023-02-07T00:38:38;10.80;;;6.03;;
5622;SDS011;2833;50.432;10.706;2023-02-07T00:41:03;9.50;;;5.20;;
5622;SDS011;2833;50.432;10.706;2023-02-07T00:43:29;5.67;;;4.43;;
5622;SDS011;2833;50.432;10.706;2023-02-07T00:45:55;6.97;;;4.80;;
5622;SDS011;2833;50.432;10.706;2023-02-07T00:48:20;13.63;;;5.53;;
5622;SDS011;2833;50.432;10.706;2023-02-07T00:50:45;9.57;;;5.30;;
5622;SDS011;2833;50.432;10.706;2023-02-07T00:53:11;11.90;;;6.00;;
5622;SDS011;2833;50.432;10.706;2023-02-07T00:55:36;8.43;;;5.27;;
5622;SDS011;2833;50.432;10.706;2023-02-07T00:58:01;14.90;;;5.53;;
5622;SDS011;2833;50.432;10.706;2023-02-07T01:00:26;9.73;;;5.40;;
5622;SDS011;2833;50.432;10.706;2023-02-07T01:02:51;12.00;;;6.33;;
5622;SDS011;2833;50.432;10.706;2023-02-07T01:05:16;8.33;;;5.40;;
5622;SDS011;2833;50.432;10.706;2023-02-07T01:07:42;11.10;;;6.43;;
5622;SDS011;2833;50.432;10.706;2023-02-07T01:10:07;9.10;;;5.70;;
5622;SDS011;2833;50.432;10.706;2023-02-07T01:12:34;8.67;;;4.97;;
5622;SDS011;2833;50.432;10.706;2023-02-07T01:14:59;10.33;;;6.07;;
5622;SDS011;2833;50.432;10.706;2023-02-07T01:17:24;18.23;;;7.60;;
5622;SDS011;2833;50.432;10.706;2023-02-07T01:19:50;12.37;;;7.00;;
5622;SDS011;2833;50.432;10.706;2023-02-07T01:22:19;11.40;;;5.60;;
5622;SDS011;2833;50.432;10.706;2023-02-07T01:24:44;10.63;;;6.07;;
5622;SDS011;2833;50.432;10.706;2023-02-07T01:27:10;11.20;;;6.20;;
5622;SDS011;2833;50.432;10.706;2023-02-07T01:29:35;10.23;;;5.63;;
5622;SDS011;2833;50.432;10.706;2023-02-07T01:32:00;10.87;;;6.83;;
5622;SDS011;2833;50.432;10.706;2023-02-07T01:34:25;10.07;;;5.83;;
5622;SDS011;2833;50.432;10.706;2023-02-07T01:36:50;14.50;;;6.77;;
5622;SDS011;2833;50.432;10.706;2023-02-07T01:39:15;11.97;;;5.97;;
5622;SDS011;2833;50.432;10.706;2023-02-07T01:41:41;11.40;;;5.97;;
5622;SDS011;2833;50.432;10.706;2023-02-07T01:46:47;11.30;;;5.67;;
5622;SDS011;2833;50.432;10.706;2023-02-07T01:49:12;10.73;;;5.67;;
5622;SDS011;2833;50.432;10.706;2023-02-07T01:51:39;12.00;;;6.47;;
5622;SDS011;2833;50.432;10.706;2023-02-07T01:54:07;14.83;;;6.30;;
5622;SDS011;2833;50.432;10.706;2023-02-07T01:56:33;14.10;;;6.70;;
5622;SDS011;2833;50.432;10.706;2023-02-07T01:59:03;15.70;;;6.20;;
5622;SDS011;2833;50.432;10.706;2023-02-07T02:01:29;15.07;;;6.40;;
5622;SDS011;2833;50.432;10.706;2023-02-07T02:03:54;10.30;;;5.93;;
5622;SDS011;2833;50.432;10.706;2023-02-07T02:06:20;12.83;;;6.27;;
5622;SDS011;2833;50.432;10.706;2023-02-07T02:08:46;13.37;;;6.77;;
5622;SDS011;2833;50.432;10.706;2023-02-07T02:22:26;11.43;;;6.33;;
5622;SDS011;2833;50.432;10.706;2023-02-07T02:35:21;12.23;;;6.90;;
5622;SDS011;2833;50.432;10.706;2023-02-07T02:37:58;14.90;;;7.00;;
5622;SDS011;2833;50.432;10.706;2023-02-07T02:40:28;12.80;;;6.70;;
5622;SDS011;2833;50.432;10.706;2023-02-07T02:43:17;9.47;;;4.90;;
5622;SDS011;2833;50.432;10.706;2023-02-07T02:48:35;11.90;;;6.63;;
5622;SDS011;2833;50.432;10.706;2023-02-07T02:51:01;16.00;;;7.00;;
5622;SDS011;2833;50.432;10.706;2023-02-07T02:53:27;13.23;;;6.40;;
5622;SDS011;2833;50.432;10.706;2023-02-07T02:56:00;12.60;;;6.73;;
5622;SDS011;2833;50.432;10.706;2023-02-07T03:08:35;12.23;;;5.90;;
5622;SDS011;2833;50.432;10.706;2023-02-07T03:11:06;12.23;;;6.37;;
5622;SDS011;2833;50.432;10.706;2023-02-07T03:13:34;17.17;;;7.77;;
5622;SDS011;2833;50.432;10.706;2023-02-07T03:21:00;13.23;;;6.47;;
5622;SDS011;2833;50.432;10.706;2023-02-07T03:23:27;11.80;;;6.47;;
5622;SDS011;2833;50.432;10.706;2023-02-07T03:25:53;14.33;;;6.67;;
5622;SDS011;2833;50.432;10.706;2023-02-07T03:28:20;13.87;;;6.37;;
5622;SDS011;2833;50.432;10.706;2023-02-07T03:30:46;12.47;;;5.80;;
5622;SDS011;2833;50.432;10.706;2023-02-07T03:33:14;12.10;;;6.10;;
5622;SDS011;2833;50.432;10.706;2023-02-07T03:35:52;14.93;;;5.80;;
5622;SDS011;2833;50.432;10.706;2023-02-07T03:38:18;10.40;;;4.70;;
5622;SDS011;2833;50.432;10.706;2023-02-07T03:40:47;10.43;;;4.97;;
5622;SDS011;2833;50.432;10.706;2023-02-07T03:43:17;8.33;;;5.30;;
5622;SDS011;2833;50.432;10.706;2023-02-07T03:45:45;9.07;;;5.50;;
5622;SDS011;2833;50.432;10.706;2023-02-07T03:48:11;12.30;;;5.83;;
5622;SDS011;2833;50.432;10.706;2023-02-07T03:50:36;11.60;;;5.83;;
5622;SDS011;2833;50.432;10.706;2023-02-07T03:53:02;8.80;;;5.00;;
5622;SDS011;2833;50.432;10.706;2023-02-07T03:55:27;11.73;;;5.80;;
5622;SDS011;2833;50.432;10.706;2023-02-07T03:57:52;11.50;;;6.10;;
5622;SDS011;2833;50.432;10.706;2023-02-07T04:00:18;10.73;;;6.00;;
5622;SDS011;2833;50.432;10.706;2023-02-07T04:02:43;14.83;;;7.20;;
5622;SDS011;2833;50.432;10.706;2023-02-07T04:05:08;14.17;;;6.90;;
5622;SDS011;2833;50.432;10.706;2023-02-07T04:07:34;20.57;;;9.27;;
5622;SDS011;2833;50.432;10.706;2023-02-07T04:09:59;13.73;;;7.17;;
5622;SDS011;2833;50.432;10.706;2023-02-07T04:12:24;11.57;;;6.10;;
5622;SDS011;2833;50.432;10.706;2023-02-07T04:14:56;14.27;;;6.47;;
5622;SDS011;2833;50.432;10.706;2023-02-07T04:17:21;17.07;;;6.80;;
5622;SDS011;2833;50.432;10.706;2023-02-07T04:19:46;12.60;;;6.60;;
5622;SDS011;2833;50.432;10.706;2023-02-07T04:22:12;13.47;;;6.60;;
5622;SDS011;2833;50.432;10.706;2023-02-07T04:24:37;11.93;;;6.10;;
5622;SDS011;2833;50.432;10.706;2023-02-07T04:27:02;11.17;;;5.33;;
5622;SDS011;2833;50.432;10.706;2023-02-07T04:29:27;11.00;;;5.50;;
5622;SDS011;2833;50.432;10.706;2023-02-07T04:31:52;10.37;;;5.13;;
5622;SDS011;2833;50.432;10.706;2023-02-07T04:34:17;12.30;;;6.30;;
5622;SDS011;2833;50.432;10.706;2023-02-07T04:36:43;16.00;;;7.80;;
5622;SDS011;2833;50.432;10.706;2023-02-07T04:39:08;12.00;;;6.30;;
5622;SDS011;2833;50.432;10.706;2023-02-07T04:41:33;12.80;;;6.10;;
5622;SDS011;2833;50.432;10.706;2023-02-07T04:43:58;11.23;;;5.37;;
5622;SDS011;2833;50.432;10.706;2023-02-07T04:46:23;19.80;;;7.80;;
5622;SDS011;2833;50.432;10.706;2023-02-07T04:48:49;22.57;;;9.40;;
5622;SDS011;2833;50.432;10.706;2023-02-07T04:51:14;20.20;;;9.30;;
5622;SDS011;2833;50.432;10.706;2023-02-07T04:53:39;14.30;;;7.17;;
5622;SDS011;2833;50.432;10.706;2023-02-07T04:56:05;17.67;;;8.77;;
5622;SDS011;2833;50.432;10.706;2023-02-07T04:58:30;17.33;;;8.20;;
5622;SDS011;2833;50.432;10.706;2023-02-07T05:00:55;13.80;;;7.03;;
5622;SDS011;2833;50.432;10.706;2023-02-07T05:03:20;11.17;;;6.60;;
5622;SDS011;2833;50.432;10.706;2023-02-07T05:05:46;12.53;;;6.30;;
5622;SDS011;2833;50.432;10.706;2023-02-07T05:08:11;12.30;;;6.60;;
5622;SDS011;2833;50.432;10.706;2023-02-07T05:10:37;13.57;;;6.57;;
5622;SDS011;2833;50.432;10.706;2023-02-07T05:13:02;11.47;;;6.50;;
5622;SDS011;2833;50.432;10.706;2023-02-07T05:15:28;9.20;;;5.50;;
5622;SDS011;2833;50.432;10.706;2023-02-07T05:17:54;9.23;;;5.67;;
5622;SDS011;2833;50.432;10.706;2023-02-07T05:20:20;9.53;;;5.63;;
5622;SDS011;2833;50.432;10.706;2023-02-07T05:22:46;11.33;;;6.27;;
5622;SDS011;2833;50.432;10.706;2023-02-07T05:25:11;11.50;;;5.63;;
5622;SDS011;2833;50.432;10.706;2023-02-07T05:27:37;11.37;;;5.40;;
5622;SDS011;2833;50.432;10.706;2023-02-07T05:30:03;8.87;;;5.50;;
5622;SDS011;2833;50.432;10.706;2023-02-07T05:32:28;9.90;;;5.27;;
5622;SDS011;2833;50.432;10.706;2023-02-07T05:35:12;9.33;;;5.50;;
5622;SDS011;2833;50.432;10.706;2023-02-07T05:37:37;9.97;;;5.00;;
5622;SDS011;2833;50.432;10.706;2023-02-07T05:40:02;8.37;;;5.70;;
5622;SDS011;2833;50.432;10.706;2023-02-07T05:42:28;9.83;;;5.43;;
5622;SDS011;2833;50.432;10.706;2023-02-07T05:44:53;7.33;;;4.93;;
5622;SDS011;2833;50.432;10.706;2023-02-07T05:47:18;9.70;;;4.87;;
5622;SDS011;2833;50.432;10.706;2023-02-07T05:49:43;10.03;;;4.77;;
5622;SDS011;2833;50.432;10.706;2023-02-07T05:52:09;25.93;;;12.23;;
5622;SDS011;2833;50.432;10.706;2023-02-07T05:54:34;32.30;;;16.87;;
5622;SDS011;2833;50.432;10.706;2023-02-07T05:56:59;33.43;;;14.80;;
5622;SDS011;2833;50.432;10.706;2023-02-07T05:59:24;18.10;;;10.07;;
5622;SDS011;2833;50.432;10.706;2023-02-07T06:01:49;11.13;;;6.43;;
5622;SDS011;2833;50.432;10.706;2023-02-07T06:04:15;12.57;;;5.30;;
5622;SDS011;2833;50.432;10.706;2023-02-07T06:06:40;9.90;;;5.60;;
5622;SDS011;2833;50.432;10.706;2023-02-07T06:09:05;12.00;;;5.97;;
5622;SDS011;2833;50.432;10.706;2023-02-07T06:11:30;9.63;;;5.10;;
5622;SDS011;2833;50.432;10.706;2023-02-07T06:13:56;13.20;;;5.93;;
5622;SDS011;2833;50.432;10.706;2023-02-07T06:16:21;12.03;;;5.60;;
5622;SDS011;2833;50.432;10.706;2023-02-07T06:18:46;9.37;;;5.70;;
5622;SDS011;2833;50.432;10.706;2023-02-07T06:21:11;9.27;;;5.93;;
5622;SDS011;2833;50.432;10.706;2023-02-07T06:23:36;8.50;;;4.87;;
5622;SDS011;2833;50.432;10.706;2023-02-07T06:26:02;12.50;;;6.07;;
5622;SDS011;2833;50.432;10.706;2023-02-07T06:28:27;10.23;;;5.30;;
5622;SDS011;2833;50.432;10.706;2023-02-07T06:30:52;10.63;;;5.60;;
5622;SDS011;2833;50.432;10.706;2023-02-07T06:33:17;13.60;;;5.67;;
5622;SDS011;2833;50.432;10.706;2023-02-07T06:35:43;10.57;;;5.87;;
5622;SDS011;2833;50.432;10.706;2023-02-07T06:38:12;8.43;;;5.07;;
5622;SDS011;2833;50.432;10.706;2023-02-07T06:40:37;10.07;;;6.53;;
5622;SDS011;2833;50.432;10.706;2023-02-07T06:43:02;10.40;;;6.73;;
5622;SDS011;2833;50.432;10.706;2023-02-07T06:45:27;14.57;;;8.97;;
5622;SDS011;2833;50.432;10.706;2023-02-07T06:47:53;36.23;;;17.60;;
5622;SDS011;2833;50.432;10.706;2023-02-07T06:50:18;29.57;;;16.90;;
5622;SDS011;2833;50.432;10.706;2023-02-07T06:52:43;20.30;;;12.27;;
5622;SDS011;2833;50.432;10.706;2023-02-07T06:55:09;19.93;;;12.20;;
5622;SDS011;2833;50.432;10.706;2023-02-07T06:57:34;16.80;;;10.40;;
5622;SDS011;2833;50.432;10.706;2023-02-07T06:59:59;23.67;;;12.80;;
5622;SDS011;2833;50.432;10.706;2023-02-07T07:02:24;17.90;;;11.47;;
5622;SDS011;2833;50.432;10.706;2023-02-07T07:04:49;21.23;;;11.50;;
5622;SDS011;2833;50.432;10.706;2023-02-07T07:07:15;23.93;;;12.73;;
5622;SDS011;2833;50.432;10.706;2023-02-07T07:09:40;22.03;;;11.30;;
5622;SDS011;2833;50.432;10.706;2023-02-07T07:12:05;17.80;;;11.23;;
5622;SDS011;2833;50.432;10.706;2023-02-07T07:14:31;18.47;;;10.40;;
5622;SDS011;2833;50.432;10.706;2023-02-07T07:16:57;17.40;;;10.37;;
5622;SDS011;2833;50.432;10.706;2023-02-07T07:19:22;19.20;;;11.40;;
5622;SDS011;2833;50.432;10.706;2023-02-07T07:21:47;19.13;;;12.53;;
5622;SDS011;2833;50.432;10.706;2023-02-07T07:24:12;18.13;;;10.73;;
5622;SDS011;2833;50.432;10.706;2023-02-07T07:26:37;22.20;;;11.40;;
5622;SDS011;2833;50.432;10.706;2023-02-07T07:29:03;18.07;;;10.77;;
5622;SDS011;2833;50.432;10.706;2023-02-07T07:31:28;21.87;;;11.87;;
5622;SDS011;2833;50.432;10.706;2023-02-07T07:33:54;19.47;;;12.17;;
5622;SDS011;2833;50.432;10.706;2023-02-07T07:36:19;27.90;;;15.17;;
5622;SDS011;2833;50.432;10.706;2023-02-07T07:38:45;20.70;;;12.43;;
5622;SDS011;2833;50.432;10.706;2023-02-07T07:41:10;19.93;;;11.57;;
5622;SDS011;2833;50.432;10.706;2023-02-07T07:43:35;20.87;;;12.23;;
5622;SDS011;2833;50.432;10.706;2023-02-07T07:46:01;20.10;;;13.00;;
5622;SDS011;2833;50.432;10.706;2023-02-07T07:48:26;22.90;;;14.83;;
5622;SDS011;2833;50.432;10.706;2023-02-07T07:50:52;22.90;;;14.53;;
5622;SDS011;2833;50.432;10.706;2023-02-07T07:53:17;23.70;;;13.70;;
5622;SDS011;2833;50.432;10.706;2023-02-07T07:55:46;20.03;;;12.73;;
5622;SDS011;2833;50.432;10.706;2023-02-07T07:58:12;22.33;;;12.10;;
5622;SDS011;2833;50.432;10.706;2023-02-07T08:00:37;20.87;;;12.47;;
5622;SDS011;2833;50.432;10.706;2023-02-07T08:03:02;23.23;;;14.07;;
5622;SDS011;2833;50.432;10.706;2023-02-07T08:05:27;27.77;;;18.60;;
5622;SDS011;2833;50.432;10.706;2023-02-07T08:07:52;53.30;;;29.53;;
5622;SDS011;2833;50.432;10.706;2023-02-07T08:10:17;31.80;;;19.13;;
5622;SDS011;2833;50.432;10.706;2023-02-07T08:12:43;25.40;;;14.20;;
5622;SDS011;2833;50.432;10.706;2023-02-07T08:15:08;31.30;;;18.60;;
5622;SDS011;2833;50.432;10.706;2023-02-07T08:17:34;31.87;;;17.10;;
5622;SDS011;2833;50.432;10.706;2023-02-07T08:19:59;33.50;;;20.03;;
5622;SDS011;2833;50.432;10.706;2023-02-07T08:22:24;32.40;;;18.73;;
5622;SDS011;2833;50.432;10.706;2023-02-07T08:24:49;25.90;;;15.70;;
5622;SDS011;2833;50.432;10.706;2023-02-07T08:27:14;28.10;;;14.50;;
5622;SDS011;2833;50.432;10.706;2023-02-07T08:29:40;27.43;;;15.40;;
5622;SDS011;2833;50.432;10.706;2023-02-07T08:32:05;31.17;;;16.67;;
5622;SDS011;2833;50.432;10.706;2023-02-07T08:34:30;29.17;;;15.73;;
5622;SDS011;2833;50.432;10.706;2023-02-07T08:37:01;26.17;;;13.87;;
5622;SDS011;2833;50.432;10.706;2023-02-07T08:39:26;21.60;;;12.37;;
5622;SDS011;2833;50.432;10.706;2023-02-07T08:41:51;19.83;;;12.07;;
5622;SDS011;2833;50.432;10.706;2023-02-07T08:44:16;18.00;;;10.80;;
5622;SDS011;2833;50.432;10.706;2023-02-07T08:46:41;14.80;;;9.87;;
5622;SDS011;2833;50.432;10.706;2023-02-07T08:49:06;19.03;;;10.07;;
5622;SDS011;2833;50.432;10.706;2023-02-07T08:51:32;14.83;;;9.20;;
5622;SDS011;2833;50.432;10.706;2023-02-07T08:53:57;37.93;;;16.83;;
5622;SDS011;2833;50.432;10.706;2023-02-07T08:56:22;40.83;;;19.13;;
5622;SDS011;2833;50.432;10.706;2023-02-07T08:58:47;27.57;;;14.03;;
5622;SDS011;2833;50.432;10.706;2023-02-07T09:01:12;38.70;;;17.80;;
5622;SDS011;2833;50.432;10.706;2023-02-07T09:03:38;27.23;;;15.10;;
5622;SDS011;2833;50.432;10.706;2023-02-07T09:06:03;21.03;;;12.50;;
5622;SDS011;2833;50.432;10.706;2023-02-07T09:08:28;21.67;;;13.10;;
5622;SDS011;2833;50.432;10.706;2023-02-07T09:10:53;13.87;;;8.13;;
5622;SDS011;2833;50.432;10.706;2023-02-07T09:13:19;14.70;;;8.63;;
5622;SDS011;2833;50.432;10.706;2023-02-07T09:15:44;12.60;;;7.27;;
5622;SDS011;2833;50.432;10.706;2023-02-07T09:18:09;13.77;;;7.93;;
5622;SDS011;2833;50.432;10.706;2023-02-07T09:20:34;12.63;;;7.60;;
5622;SDS011;2833;50.432;10.706;2023-02-07T09:22:59;23.40;;;11.80;;
5622;SDS011;2833;50.432;10.706;2023-02-07T09:25:43;19.03;;;11.23;;
5622;SDS011;2833;50.432;10.706;2023-02-07T09:28:09;20.10;;;11.70;;
5622;SDS011;2833;50.432;10.706;2023-02-07T09:30:34;35.10;;;17.07;;
5622;SDS011;2833;50.432;10.706;2023-02-07T09:32:59;21.03;;;12.40;;
5622;SDS011;2833;50.432;10.706;2023-02-07T09:35:24;19.00;;;10.13;;
5622;SDS011;2833;50.432;10.706;2023-02-07T09:37:52;20.30;;;11.70;;
5622;SDS011;2833;50.432;10.706;2023-02-07T09:40:18;58.00;;;27.10;;
5622;SDS011;2833;50.432;10.706;2023-02-07T09:45:15;37.47;;;20.40;;
5622;SDS011;2833;50.432;10.706;2023-02-07T09:47:41;25.33;;;13.73;;
5622;SDS011;2833;50.432;10.706;2023-02-07T09:50:17;30.20;;;14.60;;
5622;SDS011;2833;50.432;10.706;2023-02-07T09:55:25;24.85;;;13.88;;
5622;SDS011;2833;50.432;10.706;2023-02-07T09:57:56;32.63;;;15.47;;
5622;SDS011;2833;50.432;10.706;2023-02-07T10:02:51;29.57;;;20.70;;
5622;SDS011;2833;50.432;10.706;2023-02-07T10:05:20;17.73;;;9.90;;
5622;SDS011;2833;50.432;10.706;2023-02-07T10:07:46;9.30;;;6.00;;
5622;SDS011;2833;50.432;10.706;2023-02-07T10:10:15;11.17;;;6.40;;
5622;SDS011;2833;50.432;10.706;2023-02-07T10:12:47;11.03;;;6.40;;
5622;SDS011;2833;50.432;10.706;2023-02-07T10:30:26;7.65;;;4.45;;
5622;SDS011;2833;50.432;10.706;2023-02-07T10:32:52;9.03;;;5.80;;
5622;SDS011;2833;50.432;10.706;2023-02-07T10:35:19;11.40;;;6.03;;
5622;SDS011;2833;50.432;10.706;2023-02-07T10:37:45;9.60;;;4.73;;
5622;SDS011;2833;50.432;10.706;2023-02-07T10:40:22;5.77;;;4.50;;
5622;SDS011;2833;50.432;10.706;2023-02-07T10:43:00;8.87;;;5.10;;
5622;SDS011;2833;50.432;10.706;2023-02-07T10:45:27;12.03;;;6.93;;
5622;SDS011;2833;50.432;10.706;2023-02-07T10:47:52;8.70;;;5.40;;
5622;SDS011;2833;50.432;10.706;2023-02-07T10:50:21;8.17;;;4.70;;
5622;SDS011;2833;50.432;10.706;2023-02-07T10:52:53;6.40;;;4.10;;
5622;SDS011;2833;50.432;10.706;2023-02-07T10:55:19;7.17;;;5.03;;
5622;SDS011;2833;50.432;10.706;2023-02-07T10:57:57;5.63;;;4.07;;
5622;SDS011;2833;50.432;10.706;2023-02-07T11:00:30;5.27;;;3.87;;
5622;SDS011;2833;50.432;10.706;2023-02-07T11:02:59;5.93;;;3.63;;
5622;SDS011;2833;50.432;10.706;2023-02-07T11:05:26;5.47;;;3.80;;
5622;SDS011;2833;50.432;10.706;2023-02-07T11:10:25;7.87;;;5.30;;
5622;SDS011;2833;50.432;10.706;2023-02-07T11:12:55;12.57;;;7.03;;
5622;SDS011;2833;50.432;10.706;2023-02-07T11:15:22;7.50;;;4.70;;
5622;SDS011;2833;50.432;10.706;2023-02-07T11:17:51;10.50;;;6.00;;
5622;SDS011;2833;50.432;10.706;2023-02-07T11:20:35;6.87;;;3.60;;
5622;SDS011;2833;50.432;10.706;2023-02-07T11:23:03;13.87;;;7.80;;
5622;SDS011;2833;50.432;10.706;2023-02-07T11:25:40;10.80;;;6.07;;
5622;SDS011;2833;50.432;10.706;2023-02-07T11:28:06;5.47;;;3.60;;
5622;SDS011;2833;50.432;10.706;2023-02-07T11:30:33;11.03;;;7.50;;
5622;SDS011;2833;50.432;10.706;2023-02-07T11:33:00;14.70;;;8.07;;
5622;SDS011;2833;50.432;10.706;2023-02-07T11:35:26;11.33;;;7.20;;
5622;SDS011;2833;50.432;10.706;2023-02-07T11:38:01;10.77;;;6.20;;
5622;SDS011;2833;50.432;10.706;2023-02-07T11:43:09;8.83;;;5.10;;
5622;SDS011;2833;50.432;10.706;2023-02-07T11:45:37;5.40;;;3.20;;
5622;SDS011;2833;50.432;10.706;2023-02-07T11:48:03;7.80;;;4.80;;
5622;SDS011;2833;50.432;10.706;2023-02-07T11:50:36;9.30;;;5.50;;
5622;SDS011;2833;50.432;10.706;2023-02-07T11:53:03;6.70;;;3.70;;
5622;SDS011;2833;50.432;10.706;2023-02-07T11:55:33;4.07;;;3.13;;
5622;SDS011;2833;50.432;10.706;2023-02-07T11:58:00;11.40;;;3.77;;
5622;SDS011;2833;50.432;10.706;2023-02-07T12:00:26;3.07;;;2.80;;
5622;SDS011;2833;50.432;10.706;2023-02-07T12:03:01;5.40;;;2.33;;
5622;SDS011;2833;50.432;10.706;2023-02-07T12:05:31;5.50;;;3.30;;
5622;SDS011;2833;50.432;10.706;2023-02-07T12:07:58;18.33;;;9.20;;
5622;SDS011;2833;50.432;10.706;2023-02-07T12:10:26;21.50;;;9.73;;
5622;SDS011;2833;50.432;10.706;2023-02-07T12:13:06;25.30;;;8.93;;
5622;SDS011;2833;50.432;10.706;2023-02-07T12:15:35;127.27;;;43.47;;
5622;SDS011;2833;50.432;10.706;2023-02-07T12:20:49;9.27;;;5.70;;
5622;SDS011;2833;50.432;10.706;2023-02-07T12:25:44;10.40;;;6.00;;
5622;SDS011;2833;50.432;10.706;2023-02-07T12:28:32;11.73;;;6.10;;
5622;SDS011;2833;50.432;10.706;2023-02-07T12:31:00;21.50;;;10.40;;
5622;SDS011;2833;50.432;10.706;2023-02-07T12:40:50;7.00;;;4.30;;
5622;SDS011;2833;50.432;10.706;2023-02-07T12:59:08;6.17;;;3.80;;
5622;SDS011;2833;50.432;10.706;2023-02-07T13:01:46;6.00;;;3.20;;
5622;SDS011;2833;50.432;10.706;2023-02-07T13:19:20;5.60;;;3.23;;
5622;SDS011;2833;50.432;10.706;2023-02-07T13:24:16;7.30;;;3.63;;
5622;SDS011;2833;50.432;10.706;2023-02-07T13:26:59;5.20;;;3.20;;
5622;SDS011;2833;50.432;10.706;2023-02-07T13:29:28;4.17;;;2.80;;
5622;SDS011;2833;50.432;10.706;2023-02-07T13:31:55;8.53;;;3.90;;
5622;SDS011;2833;50.432;10.706;2023-02-07T13:34:22;11.20;;;5.60;;
5622;SDS011;2833;50.432;10.706;2023-02-07T13:36:49;10.60;;;4.40;;
5622;SDS011;2833;50.432;10.706;2023-02-07T13:45:14;9.50;;;5.23;;
5622;SDS011;2833;50.432;10.706;2023-02-07T13:47:44;7.33;;;4.67;;
5622;SDS011;2833;50.432;10.706;2023-02-07T13:50:33;19.53;;;7.07;;
5622;SDS011;2833;50.432;10.706;2023-02-07T13:55:38;9.67;;;4.97;;
5622;SDS011;2833;50.432;10.706;2023-02-07T13:58:04;5.10;;;3.00;;
5622;SDS011;2833;50.432;10.706;2023-02-07T14:01:09;6.87;;;3.53;;
5622;SDS011;2833;50.432;10.706;2023-02-07T14:03:39;19.33;;;7.97;;
5622;SDS011;2833;50.432;10.706;2023-02-07T14:06:24;5.40;;;3.47;;
5622;SDS011;2833;50.432;10.706;2023-02-07T14:09:00;8.40;;;3.53;;
5622;SDS011;2833;50.432;10.706;2023-02-07T14:14:01;5.23;;;3.30;;
5622;SDS011;2833;50.432;10.706;2023-02-07T14:19:11;29.00;;;13.60;;
5622;SDS011;2833;50.432;10.706;2023-02-07T14:21:37;23.00;;;11.27;;
5622;SDS011;2833;50.432;10.706;2023-02-07T14:31:47;6.00;;;3.30;;
5622;SDS011;2833;50.432;10.706;2023-02-07T14:34:13;5.30;;;3.13;;
5622;SDS011;2833;50.432;10.706;2023-02-07T14:36:38;4.40;;;2.80;;
5622;SDS011;2833;50.432;10.706;2023-02-07T14:39:12;6.80;;;3.77;;
5622;SDS011;2833;50.432;10.706;2023-02-07T14:41:46;2.83;;;2.37;;
5622;SDS011;2833;50.432;10.706;2023-02-07T14:46:52;5.70;;;2.47;;
5622;SDS011;2833;50.432;10.706;2023-02-07T14:51:57;3.80;;;2.90;;
5622;SDS011;2833;50.432;10.706;2023-02-07T14:59:38;13.50;;;6.47;;
5622;SDS011;2833;50.432;10.706;2023-02-07T15:04:48;4.80;;;2.80;;
5622;SDS011;2833;50.432;10.706;2023-02-07T15:07:14;5.07;;;3.17;;
5622;SDS011;2833;50.432;10.706;2023-02-07T15:09:40;5.47;;;3.27;;
5622;SDS011;2833;50.432;10.706;2023-02-07T15:12:06;5.87;;;3.37;;
5622;SDS011;2833;50.432;10.706;2023-02-07T15:14:33;4.30;;;3.13;;
5622;SDS011;2833;50.432;10.706;2023-02-07T15:16:58;3.70;;;2.97;;
5622;SDS011;2833;50.432;10.706;2023-02-07T15:19:31;8.90;;;3.27;;
5622;SDS011;2833;50.432;10.706;2023-02-07T15:21:58;6.13;;;3.87;;
5622;SDS011;2833;50.432;10.706;2023-02-07T15:24:26;8.67;;;4.50;;
5622;SDS011;2833;50.432;10.706;2023-02-07T15:26:53;7.13;;;4.63;;
5622;SDS011;2833;50.432;10.706;2023-02-07T15:29:20;4.80;;;2.93;;
5622;SDS011;2833;50.432;10.706;2023-02-07T15:31:45;6.30;;;3.80;;
5622;SDS011;2833;50.432;10.706;2023-02-07T15:34:11;5.00;;;3.87;;
5622;SDS011;2833;50.432;10.706;2023-02-07T15:36:39;3.70;;;2.93;;
5622;SDS011;2833;50.432;10.706;2023-02-07T15:39:27;15.47;;;7.37;;
5622;SDS011;2833;50.432;10.706;2023-02-07T15:41:52;8.43;;;4.43;;
5622;SDS011;2833;50.432;10.706;2023-02-07T15:44:20;7.50;;;3.63;;
5622;SDS011;2833;50.432;10.706;2023-02-07T15:49:22;4.47;;;2.80;;
5622;SDS011;2833;50.432;10.706;2023-02-07T15:51:48;10.80;;;6.10;;
5622;SDS011;2833;50.432;10.706;2023-02-07T15:54:14;12.97;;;7.60;;
5622;SDS011;2833;50.432;10.706;2023-02-07T15:56:40;5.27;;;3.10;;
5622;SDS011;2833;50.432;10.706;2023-02-07T15:59:08;7.20;;;3.50;;
5622;SDS011;2833;50.432;10.706;2023-02-07T16:01:34;6.90;;;4.73;;
5622;SDS011;2833;50.432;10.706;2023-02-07T16:04:01;6.83;;;4.30;;
5622;SDS011;2833;50.432;10.706;2023-02-07T16:06:28;8.87;;;4.37;;
5622;SDS011;2833;50.432;10.706;2023-02-07T16:08:54;7.80;;;4.27;;
5622;SDS011;2833;50.432;10.706;2023-02-07T16:16:19;8.03;;;4.60;;
5622;SDS011;2833;50.432;10.706;2023-02-07T16:18:44;7.60;;;4.10;;
5622;SDS011;2833;50.432;10.706;2023-02-07T16:21:22;7.83;;;4.90;;
5622;SDS011;2833;50.432;10.706;2023-02-07T16:23:48;12.53;;;6.60;;
5622;SDS011;2833;50.432;10.706;2023-02-07T16:26:16;21.87;;;10.10;;
5622;SDS011;2833;50.432;10.706;2023-02-07T16:28:43;12.70;;;6.37;;
5622;SDS011;2833;50.432;10.706;2023-02-07T16:31:08;22.40;;;12.23;;
5622;SDS011;2833;50.432;10.706;2023-02-07T16:33:33;29.10;;;14.53;;
5622;SDS011;2833;50.432;10.706;2023-02-07T16:35:58;34.13;;;17.23;;
5622;SDS011;2833;50.432;10.706;2023-02-07T16:38:24;61.13;;;30.07;;
5622;SDS011;2833;50.432;10.706;2023-02-07T16:40:49;36.40;;;17.97;;
5622;SDS011;2833;50.432;10.706;2023-02-07T16:43:28;35.00;;;18.20;;
5622;SDS011;2833;50.432;10.706;2023-02-07T16:45:54;63.93;;;26.63;;
5622;SDS011;2833;50.432;10.706;2023-02-07T16:48:20;35.17;;;17.10;;
5622;SDS011;2833;50.432;10.706;2023-02-07T16:50:45;28.97;;;14.00;;
5622;SDS011;2833;50.432;10.706;2023-02-07T16:53:10;27.67;;;12.90;;
5622;SDS011;2833;50.432;10.706;2023-02-07T16:55:35;25.33;;;12.27;;
5622;SDS011;2833;50.432;10.706;2023-02-07T16:58:02;103.17;;;34.40;;
5622;SDS011;2833;50.432;10.706;2023-02-07T17:00:29;38.97;;;19.40;;
5622;SDS011;2833;50.432;10.706;2023-02-07T17:02:54;39.80;;;18.57;;
5622;SDS011;2833;50.432;10.706;2023-02-07T17:05:20;251.00;;;73.30;;
5622;SDS011;2833;50.432;10.706;2023-02-07T17:07:46;88.47;;;33.40;;
5622;SDS011;2833;50.432;10.706;2023-02-07T17:10:19;97.77;;;33.93;;
5622;SDS011;2833;50.432;10.706;2023-02-07T17:12:45;147.30;;;50.77;;
5622;SDS011;2833;50.432;10.706;2023-02-07T17:15:10;40.27;;;19.90;;
5622;SDS011;2833;50.432;10.706;2023-02-07T17:17:36;91.37;;;44.63;;
5622;SDS011;2833;50.432;10.706;2023-02-07T17:20:01;138.27;;;40.67;;
5622;SDS011;2833;50.432;10.706;2023-02-07T17:22:26;31.07;;;16.30;;
5622;SDS011;2833;50.432;10.706;2023-02-07T17:24:51;36.33;;;18.43;;
5622;SDS011;2833;50.432;10.706;2023-02-07T17:27:17;34.63;;;16.97;;